Time;durP1;ratioP1;P1;durP2;ratioP2;P2;SDS_P1;SDS_P2;PMS_P1;PMS_P2;Temp;Humidity;BMP_temperature;BMP_pressure;BME280_temperature;BME280_humidity;BME280_pressure;Samples;Min_cycle;Max_cycle;Signal;HPM_P1;HPM_P2
2023/03/28 00:01:29;;;;;;;;;;;;;;;3.58;65.28;101131.69;4137771;28;20383;-65
2023/03/28 00:03:34;;;;;;;;;;;;;;;3.57;65.52;101133.53;4138403;28;20041;-65
2023/03/28 00:05:39;;;;;;;;;;;;;;;3.63;65.37;101144.69;4138072;28;20028;-65
2023/03/28 00:07:45;;;;;;;;;;;;;;;3.61;65.11;101159.00;4138328;28;20012;-65
2023/03/28 00:09:47;;;;;;;;;;;;;;;3.54;65.62;101178.31;4138192;28;20043;-65
2023/03/28 00:11:50;;;;;;;;;;;;;;;3.43;65.93;101176.47;4136343;28;20016;-65
2023/03/28 00:13:56;;;;;;;;;;;;;;;3.31;66.88;101178.28;4138642;28;20025;-65
2023/03/28 00:16:02;;;;;;;;;;;;;;;3.24;67.45;101188.59;4138242;28;20028;-64
2023/03/28 00:18:05;;;;;;;;;;;;;;;3.21;67.89;101183.50;4138585;28;20009;-64
2023/03/28 00:20:09;;;;;;;;;;;;;;;3.18;68.22;101185.53;4138738;28;20017;-65
2023/03/28 00:22:14;;;;;;;;;;;;;;;3.16;68.35;101188.31;4137930;28;20012;-65
2023/03/28 00:24:20;;;;;;;;;;;;;;;3.13;68.25;101185.03;4138482;28;20021;-65
2023/03/28 00:26:23;;;;;;;;;;;;;;;3.08;68.35;101182.72;4138199;28;20012;-64
2023/03/28 00:28:25;;;;;;;;;;;;;;;3.05;68.43;101186.47;4138703;28;20455;-65
2023/03/28 00:30:27;;;;;;;;;;;;;;;3.03;68.53;101183.09;4144512;28;20036;-64
2023/03/28 00:32:29;;;;;;;;;;;;;;;3.01;68.77;101173.47;4142682;28;20069;-65
2023/03/28 00:34:31;;;;;;;;;;;;;;;2.98;69.10;101176.38;4138525;28;20024;-65
2023/03/28 00:36:33;;;;;;;;;;;;;;;3.03;69.24;101176.91;4143873;28;20529;-65
2023/03/28 00:38:35;;;;;;;;;;;;;;;3.05;69.31;101182.97;4138985;28;19972;-63
2023/03/28 00:40:39;;;;;;;;;;;;;;;3.04;69.33;101186.59;4139278;28;20047;-65
2023/03/28 00:42:41;;;;;;;;;;;;;;;2.98;69.56;101190.59;4138044;28;20036;-65
2023/03/28 00:44:44;;;;;;;;;;;;;;;2.92;69.74;101196.41;4137899;28;20013;-65
2023/03/28 00:46:46;;;;;;;;;;;;;;;2.85;70.10;101205.81;4138226;28;20012;-64
2023/03/28 00:48:49;;;;;;;;;;;;;;;2.83;70.45;101210.44;4137496;28;20099;-64
2023/03/28 00:50:51;;;;;;;;;;;;;;;2.83;70.50;101205.94;4139069;28;19976;-63
2023/03/28 00:52:54;;;;;;;;;;;;;;;2.85;70.05;101208.47;4137362;28;20044;-65
2023/03/28 00:54:57;;;;;;;;;;;;;;;2.82;69.99;101206.03;4137183;28;20016;-65
2023/03/28 00:57:01;;;;;;;;;;;;;;;2.82;69.90;101214.06;4136427;28;20016;-65
2023/03/28 00:59:05;;;;;;;;;;;;;;;2.83;69.87;101219.28;4138718;28;20028;-64
2023/03/28 01:01:07;;;;;;;;;;;;;;;2.84;69.23;101218.31;4144651;28;20397;-63
2023/03/28 01:03:12;;;;;;;;;;;;;;;2.87;69.11;101219.91;4142717;28;20055;-62
2023/03/28 01:05:16;;;;;;;;;;;;;;;2.92;69.08;101214.22;4136387;28;20017;-64
2023/03/28 01:07:18;;;;;;;;;;;;;;;2.94;68.51;101221.13;4127916;28;20016;-63
2023/03/28 01:09:22;;;;;;;;;;;;;;;2.99;68.19;101234.13;4121191;28;20496;-66
2023/03/28 01:11:28;;;;;;;;;;;;;;;3.00;67.96;101225.16;4122567;28;20053;-63
2023/03/28 01:13:33;;;;;;;;;;;;;;;2.97;67.86;101225.41;4135673;28;20388;-64
2023/03/28 01:15:35;;;;;;;;;;;;;;;2.96;67.43;101237.03;4118870;28;20016;-64
2023/03/28 01:17:40;;;;;;;;;;;;;;;2.97;67.47;101234.25;4141163;28;20015;-62
2023/03/28 01:19:49;;;;;;;;;;;;;;;2.97;67.26;101239.59;4122473;28;20479;-63
2023/03/28 01:22:05;;;;;;;;;;;;;;;2.93;67.08;101243.47;4132784;28;20041;-66
2023/03/28 01:24:30;;;;;;;;;;;;;;;2.89;67.11;101239.31;4155153;28;20016;-66
2023/03/28 01:26:36;;;;;;;;;;;;;;;2.88;67.27;101243.81;4140911;28;20012;-63
2023/03/28 01:28:49;;;;;;;;;;;;;;;2.88;67.18;101243.81;4146976;28;20042;-62
2023/03/28 01:31:03;;;;;;;;;;;;;;;2.87;67.16;101252.78;4139569;28;19964;-65
2023/03/28 01:33:32;;;;;;;;;;;;;;;2.88;66.90;101245.59;4140296;28;20018;-67
2023/03/28 01:35:56;;;;;;;;;;;;;;;2.86;67.09;101251.06;4115407;28;20029;-64
2023/03/28 01:38:00;;;;;;;;;;;;;;;2.87;66.98;101254.59;4146642;28;20027;-65
2023/03/28 01:40:11;;;;;;;;;;;;;;;2.87;67.01;101258.09;4139118;28;20024;-65
2023/03/28 01:42:19;;;;;;;;;;;;;;;2.85;66.95;101264.50;4146255;28;20016;-66
2023/03/28 01:44:24;;;;;;;;;;;;;;;2.82;67.12;101260.28;4140581;28;20107;-66
2023/03/28 01:46:27;;;;;;;;;;;;;;;2.83;67.26;101261.97;4129727;28;20032;-66
2023/03/28 01:48:32;;;;;;;;;;;;;;;2.84;67.44;101270.84;4155694;28;20024;-66
2023/03/28 01:50:35;;;;;;;;;;;;;;;2.84;67.48;101271.69;4140884;28;20065;-65
2023/03/28 01:52:38;;;;;;;;;;;;;;;2.84;67.61;101268.16;4140135;28;20025;-66
2023/03/28 01:54:43;;;;;;;;;;;;;;;2.84;67.73;101276.16;4163123;28;20447;-66
2023/03/28 01:56:49;;;;;;;;;;;;;;;2.80;67.91;101280.00;4139109;28;20024;-65
2023/03/28 01:58:59;;;;;;;;;;;;;;;2.80;67.98;101278.19;4139130;28;20394;-65
2023/03/28 02:01:21;;;;;;;;;;;;;;;2.86;68.10;101276.91;4146911;28;20013;-64
2023/03/28 02:03:24;;;;;;;;;;;;;;;2.89;68.10;101282.00;4137716;28;20013;-65
2023/03/28 02:05:30;;;;;;;;;;;;;;;2.91;68.28;101288.06;4146411;28;20028;-65
2023/03/28 02:07:36;;;;;;;;;;;;;;;2.91;68.41;101292.56;4146003;28;20040;-64
2023/03/28 02:09:49;;;;;;;;;;;;;;;2.87;68.65;101298.13;4147033;28;20012;-64
2023/03/28 02:12:10;;;;;;;;;;;;;;;2.89;68.85;101304.19;4138990;28;20040;-65
2023/03/28 02:14:47;;;;;;;;;;;;;;;2.91;69.11;101309.41;4119781;28;19966;-65
2023/03/28 02:17:14;;;;;;;;;;;;;;;2.91;69.69;101321.91;4106720;28;19998;-65
2023/03/28 02:19:39;;;;;;;;;;;;;;;2.93;70.45;101311.97;4108586;28;19933;-65
2023/03/28 02:21:58;;;;;;;;;;;;;;;2.95;70.89;101320.75;4106268;28;19986;-66
2023/03/28 02:24:30;;;;;;;;;;;;;;;2.92;71.23;101320.97;4113692;28;20440;-65
2023/03/28 02:27:11;;;;;;;;;;;;;;;2.90;71.60;101310.41;4080373;29;20351;-66
2023/03/28 02:29:23;;;;;;;;;;;;;;;2.88;71.29;101317.66;4090865;28;20037;-65
2023/03/28 02:31:32;;;;;;;;;;;;;;;2.91;71.25;101313.91;4138790;28;20052;-65
2023/03/28 02:33:36;;;;;;;;;;;;;;;2.89;70.78;101312.19;4137924;28;20041;-66
2023/03/28 02:35:40;;;;;;;;;;;;;;;2.86;70.61;101312.41;4106307;28;20112;-66
2023/03/28 02:37:43;;;;;;;;;;;;;;;2.84;70.82;101313.53;4138099;28;20020;-66
2023/03/28 02:39:47;;;;;;;;;;;;;;;2.84;70.52;101311.69;4106789;28;20017;-64
2023/03/28 02:41:52;;;;;;;;;;;;;;;2.82;70.44;101318.97;4112758;28;20025;-66
2023/03/28 02:43:59;;;;;;;;;;;;;;;2.82;70.68;101316.28;4139391;28;20008;-65
2023/03/28 02:46:09;;;;;;;;;;;;;;;2.82;70.47;101326.97;4114340;28;20045;-65
2023/03/28 02:48:13;;;;;;;;;;;;;;;2.84;70.04;101321.53;4105897;28;20028;-65
2023/03/28 02:50:18;;;;;;;;;;;;;;;2.83;69.78;101334.00;4138762;28;20379;-64
2023/03/28 02:52:22;;;;;;;;;;;;;;;2.81;69.22;101329.75;4106978;28;20021;-64
2023/03/28 02:54:25;;;;;;;;;;;;;;;2.78;68.95;101322.81;4114245;28;20049;-64
2023/03/28 02:56:49;;;;;;;;;;;;;;;2.76;68.78;101326.53;4106843;28;20021;-65
2023/03/28 02:59:10;;;;;;;;;;;;;;;2.77;68.41;101331.78;4105351;28;20017;-63
2023/03/28 03:01:13;;;;;;;;;;;;;;;2.74;68.20;101340.00;4113455;28;20343;-65
2023/03/28 03:03:15;;;;;;;;;;;;;;;2.73;68.17;101342.78;4106624;28;20017;-65
2023/03/28 03:05:19;;;;;;;;;;;;;;;2.72;68.28;101341.09;4107535;28;20025;-64
2023/03/28 03:07:20;;;;;;;;;;;;;;;2.73;67.88;101345.44;4107451;28;20021;-65
2023/03/28 03:09:25;;;;;;;;;;;;;;;2.72;67.62;101349.09;4122355;28;20028;-66
2023/03/28 03:11:27;;;;;;;;;;;;;;;2.71;67.65;101345.53;4099813;28;20041;-66
2023/03/28 03:13:32;;;;;;;;;;;;;;;2.69;67.48;101353.66;4121212;28;20479;-66
2023/03/28 03:15:40;;;;;;;;;;;;;;;2.69;67.22;101361.66;4114208;28;19958;-66
2023/03/28 03:17:57;;;;;;;;;;;;;;;2.69;67.06;101364.34;4129056;28;20004;-66
2023/03/28 03:20:05;;;;;;;;;;;;;;;2.71;66.83;101361.56;4123796;28;20021;-65
2023/03/28 03:22:11;;;;;;;;;;;;;;;2.72;66.75;101363.28;4122114;28;20006;-66
2023/03/28 03:24:13;;;;;;;;;;;;;;;2.73;66.49;101362.31;4122549;28;20040;-66
2023/03/28 03:26:18;;;;;;;;;;;;;;;2.73;66.39;101367.66;4122583;28;20099;-66
2023/03/28 03:28:35;;;;;;;;;;;;;;;2.75;66.54;101373.72;4153908;28;21551;-66
2023/03/28 03:30:40;;;;;;;;;;;;;;;2.76;66.19;101372.75;4128967;28;20483;-66
2023/03/28 03:32:55;;;;;;;;;;;;;;;2.78;66.28;101372.66;4121967;28;20013;-66
2023/03/28 03:35:00;;;;;;;;;;;;;;;2.77;66.44;101382.44;4122539;28;20021;-65
2023/03/28 03:37:03;;;;;;;;;;;;;;;2.77;66.51;101382.44;4128764;28;20016;-62
2023/03/28 03:39:05;;;;;;;;;;;;;;;2.75;66.69;101381.72;4121608;28;20017;-64
2023/03/28 03:41:07;;;;;;;;;;;;;;;2.75;67.00;101391.53;4153248;28;20012;-66
2023/03/28 03:43:09;;;;;;;;;;;;;;;2.74;66.88;101392.50;4121308;28;20021;-66
2023/03/28 03:45:14;;;;;;;;;;;;;;;2.74;67.10;101403.16;4121426;28;20016;-65
2023/03/28 03:47:19;;;;;;;;;;;;;;;2.73;67.23;101406.78;4144288;28;20374;-66
2023/03/28 03:49:24;;;;;;;;;;;;;;;2.72;67.24;101413.94;4122641;28;20025;-66
2023/03/28 03:51:27;;;;;;;;;;;;;;;2.70;67.58;101418.56;4144815;28;20021;-66
2023/03/28 03:53:30;;;;;;;;;;;;;;;2.70;67.76;101406.06;4144709;28;20071;-66
2023/03/28 03:55:44;;;;;;;;;;;;;;;2.70;67.75;101424.72;4120955;28;20380;-66
2023/03/28 03:57:46;;;;;;;;;;;;;;;2.70;67.97;101423.88;4128597;28;20012;-66
2023/03/28 03:59:48;;;;;;;;;;;;;;;2.70;68.39;101431.88;4128754;28;20009;-66
2023/03/28 04:01:55;;;;;;;;;;;;;;;2.67;68.27;101424.94;4126532;28;20024;-67
2023/03/28 04:03:58;;;;;;;;;;;;;;;2.68;68.31;101426.66;4154325;28;20024;-67
2023/03/28 04:06:10;;;;;;;;;;;;;;;2.67;68.52;101424.94;4120859;28;20444;-66
2023/03/28 04:08:12;;;;;;;;;;;;;;;2.69;68.51;101430.16;4122878;28;20013;-66
2023/03/28 04:10:17;;;;;;;;;;;;;;;2.67;68.50;101432.09;4127899;28;20000;-66
2023/03/28 04:12:19;;;;;;;;;;;;;;;2.65;68.63;101440.22;4121987;28;20041;-66
2023/03/28 04:14:24;;;;;;;;;;;;;;;2.61;68.71;101435.19;4137532;28;20435;-66
2023/03/28 04:16:33;;;;;;;;;;;;;;;2.60;68.79;101438.81;4136780;28;20012;-66
2023/03/28 04:18:38;;;;;;;;;;;;;;;2.57;68.72;101450.56;4128510;28;20455;-65
2023/03/28 04:20:42;;;;;;;;;;;;;;;2.57;68.58;101455.03;4128614;28;20028;-66
2023/03/28 04:22:47;;;;;;;;;;;;;;;2.57;68.83;101465.69;4141138;28;20373;-66
2023/03/28 04:24:52;;;;;;;;;;;;;;;2.56;68.64;101464.00;4143734;28;20016;-66
2023/03/28 04:27:09;;;;;;;;;;;;;;;2.55;68.76;101463.13;4127975;28;20040;-66
2023/03/28 04:29:11;;;;;;;;;;;;;;;2.57;68.30;101471.91;4127761;28;20025;-65
2023/03/28 04:31:16;;;;;;;;;;;;;;;2.59;67.96;101471.81;4136818;28;20020;-65
2023/03/28 04:33:56;;;;;;;;;;;;;;;2.60;67.81;101474.38;4143660;28;20539;-66
2023/03/28 04:36:00;;;;;;;;;;;;;;;2.60;67.76;101482.38;4144253;28;20016;-66
2023/03/28 04:38:02;;;;;;;;;;;;;;;2.59;67.92;101490.47;4135604;28;20037;-65
2023/03/28 04:40:09;;;;;;;;;;;;;;;2.58;67.92;101499.41;4119673;28;20041;-66
2023/03/28 04:42:20;;;;;;;;;;;;;;;2.53;67.97;101494.41;4130849;28;19997;-66
2023/03/28 04:44:40;;;;;;;;;;;;;;;2.53;67.92;101505.06;4115874;28;20021;-66
2023/03/28 04:46:42;;;;;;;;;;;;;;;2.51;67.77;101507.84;4132975;28;20024;-65
2023/03/28 04:48:48;;;;;;;;;;;;;;;2.51;67.83;101510.50;4120208;28;19964;-66
2023/03/28 04:51:01;;;;;;;;;;;;;;;2.51;67.92;101526.50;4119205;28;19933;-64
2023/03/28 04:53:03;;;;;;;;;;;;;;;2.49;68.04;101517.78;4107734;28;19940;-65
2023/03/28 04:55:06;;;;;;;;;;;;;;;2.49;67.91;101532.91;4112828;28;20390;-66
2023/03/28 04:57:09;;;;;;;;;;;;;;;2.48;68.10;101532.06;4119390;28;20013;-66
2023/03/28 04:59:23;;;;;;;;;;;;;;;2.47;68.27;101529.50;4144292;28;20021;-65
2023/03/28 05:01:26;;;;;;;;;;;;;;;2.45;68.26;101531.41;4139358;28;20020;-66
2023/03/28 05:03:54;;;;;;;;;;;;;;;2.45;68.32;101536.75;4101305;28;20471;-66
2023/03/28 05:05:56;;;;;;;;;;;;;;;2.44;68.31;101537.69;4130976;28;20487;-66
2023/03/28 05:08:00;;;;;;;;;;;;;;;2.45;68.27;101542.94;4131066;28;20024;-66
2023/03/28 05:10:02;;;;;;;;;;;;;;;2.44;68.35;101548.38;4130578;28;20033;-66
2023/03/28 05:12:10;;;;;;;;;;;;;;;2.42;68.50;101552.97;4121986;28;20037;-66
2023/03/28 05:14:32;;;;;;;;;;;;;;;2.41;68.35;101552.09;4130093;28;19960;-66
2023/03/28 05:16:49;;;;;;;;;;;;;;;2.40;68.38;101557.53;4129947;28;20036;-66
2023/03/28 05:19:16;;;;;;;;;;;;;;;2.40;68.37;101558.41;4138625;28;20028;-65
2023/03/28 05:21:35;;;;;;;;;;;;;;;2.37;68.08;101571.06;4122961;28;20052;-65
2023/03/28 05:23:39;;;;;;;;;;;;;;;2.36;68.13;101567.53;4113527;28;20448;-65
2023/03/28 05:25:50;;;;;;;;;;;;;;;2.37;68.20;101563.94;4144997;28;20024;-63
2023/03/28 05:27:52;;;;;;;;;;;;;;;2.36;68.24;101577.38;4138942;28;20036;-66
2023/03/28 05:29:54;;;;;;;;;;;;;;;2.36;68.04;101574.69;4124629;28;19926;-65
2023/03/28 05:31:56;;;;;;;;;;;;;;;2.34;68.25;101577.47;4137931;28;20020;-66
2023/03/28 05:34:03;;;;;;;;;;;;;;;2.34;68.26;101572.97;4122112;28;20045;-64
2023/03/28 05:36:13;;;;;;;;;;;;;;;2.36;68.43;101580.03;4122613;28;20400;-64
2023/03/28 05:38:16;;;;;;;;;;;;;;;2.36;68.62;101580.03;4155221;28;20024;-65
2023/03/28 05:40:25;;;;;;;;;;;;;;;2.38;68.66;101591.44;4131040;28;20240;-66
2023/03/28 05:42:27;;;;;;;;;;;;;;;2.41;68.39;101593.91;4129944;28;20581;-64
2023/03/28 05:44:29;;;;;;;;;;;;;;;2.41;68.53;101600.06;4130732;28;20048;-65
2023/03/28 05:46:50;;;;;;;;;;;;;;;2.43;68.51;101605.31;4123963;28;20029;-65
2023/03/28 05:48:52;;;;;;;;;;;;;;;2.42;68.24;101606.28;4130279;28;20032;-65
2023/03/28 05:50:54;;;;;;;;;;;;;;;2.40;68.21;101609.06;4122928;28;20029;-64
2023/03/28 05:52:56;;;;;;;;;;;;;;;2.40;67.93;101603.72;4130247;28;20435;-65
2023/03/28 05:54:59;;;;;;;;;;;;;;;2.40;67.42;101611.72;4122836;28;20056;-66
2023/03/28 05:57:02;;;;;;;;;;;;;;;2.41;67.29;101616.06;4130266;28;20020;-63
2023/03/28 05:59:04;;;;;;;;;;;;;;;2.44;67.16;101618.53;4130556;28;20619;-65
2023/03/28 06:01:16;;;;;;;;;;;;;;;2.46;66.84;101623.75;4124351;28;20020;-65
2023/03/28 06:03:24;;;;;;;;;;;;;;;2.50;66.20;101626.13;4121239;28;20013;-65
2023/03/28 06:05:27;;;;;;;;;;;;;;;2.49;65.81;101640.44;4129601;28;19932;-66
2023/03/28 06:07:29;;;;;;;;;;;;;;;2.47;65.60;101631.66;4130169;28;20025;-66
2023/03/28 06:09:33;;;;;;;;;;;;;;;2.48;65.61;101635.22;4130289;28;20021;-66
2023/03/28 06:11:36;;;;;;;;;;;;;;;2.50;65.44;101638.63;4123586;28;19930;-66
2023/03/28 06:13:44;;;;;;;;;;;;;;;2.51;65.13;101637.66;4123026;28;20017;-63
2023/03/28 06:15:48;;;;;;;;;;;;;;;2.52;65.10;101640.22;4129972;28;20013;-65
2023/03/28 06:17:51;;;;;;;;;;;;;;;2.53;65.07;101641.06;4129811;28;20013;-65
2023/03/28 06:19:53;;;;;;;;;;;;;;;2.52;65.25;101642.03;4129873;28;20013;-65
2023/03/28 06:21:55;;;;;;;;;;;;;;;2.52;65.53;101645.56;4113639;28;20499;-66
2023/03/28 06:23:57;;;;;;;;;;;;;;;2.55;65.62;101652.47;4123558;28;20022;-65
2023/03/28 06:26:05;;;;;;;;;;;;;;;2.56;65.58;101653.38;4138604;28;20008;-65
2023/03/28 06:28:13;;;;;;;;;;;;;;;2.54;65.75;101650.81;4154507;28;20059;-65
2023/03/28 06:30:38;;;;;;;;;;;;;;;2.55;65.67;101663.16;4117819;28;20367;-64
2023/03/28 06:32:42;;;;;;;;;;;;;;;2.55;65.79;101655.16;4112704;28;20036;-65
2023/03/28 06:34:45;;;;;;;;;;;;;;;2.59;65.60;101663.81;4129640;28;20104;-65
2023/03/28 06:36:47;;;;;;;;;;;;;;;2.60;65.51;101665.50;4137420;28;20012;-65
2023/03/28 06:38:51;;;;;;;;;;;;;;;2.59;65.51;101656.66;4138392;28;20029;-66
2023/03/28 06:40:53;;;;;;;;;;;;;;;2.63;65.59;101668.84;4122335;28;19937;-65
2023/03/28 06:42:55;;;;;;;;;;;;;;;2.64;65.36;101664.38;4145121;28;20015;-63
2023/03/28 06:45:26;;;;;;;;;;;;;;;2.66;65.35;101675.78;4118874;28;20381;-66
2023/03/28 06:47:35;;;;;;;;;;;;;;;2.68;65.53;101673.84;4129341;28;20029;-65
2023/03/28 06:49:37;;;;;;;;;;;;;;;2.67;65.11;101681.00;4138162;28;20029;-65
2023/03/28 06:51:55;;;;;;;;;;;;;;;2.68;65.06;101682.72;4123032;28;20073;-65
2023/03/28 06:53:57;;;;;;;;;;;;;;;2.69;65.05;101679.09;4128872;28;20076;-66
2023/03/28 06:56:05;;;;;;;;;;;;;;;2.72;64.92;101683.38;4129794;28;20017;-66
2023/03/28 06:58:07;;;;;;;;;;;;;;;2.73;64.81;101682.44;4128882;28;20020;-66
2023/03/28 07:00:21;;;;;;;;;;;;;;;2.77;64.44;101694.56;4145989;28;20016;-66
2023/03/28 07:02:47;;;;;;;;;;;;;;;2.80;64.68;101690.88;4110219;28;20016;-64
2023/03/28 07:04:49;;;;;;;;;;;;;;;2.83;64.39;101701.31;4128335;28;20024;-66
2023/03/28 07:06:51;;;;;;;;;;;;;;;2.84;64.11;101687.03;4136673;28;20463;-65
2023/03/28 07:08:53;;;;;;;;;;;;;;;2.86;64.18;101691.28;4137746;28;20025;-66
2023/03/28 07:11:04;;;;;;;;;;;;;;;2.92;64.19;101697.19;4145663;28;20015;-65
2023/03/28 07:13:07;;;;;;;;;;;;;;;2.95;63.46;101699.66;4136615;28;20016;-65
2023/03/28 07:15:18;;;;;;;;;;;;;;;2.97;62.88;101705.75;4134336;28;20031;-64
2023/03/28 07:17:21;;;;;;;;;;;;;;;2.98;62.82;101718.97;4144722;28;20008;-66
2023/03/28 07:19:25;;;;;;;;;;;;;;;3.00;62.60;101713.53;4154110;28;20035;-66
2023/03/28 07:21:27;;;;;;;;;;;;;;;3.03;62.51;101716.00;4145064;28;20016;-66
2023/03/28 07:23:32;;;;;;;;;;;;;;;3.07;62.78;101720.16;4144806;28;20019;-66
2023/03/28 07:25:34;;;;;;;;;;;;;;;3.10;62.53;101717.28;4144866;28;20012;-66
2023/03/28 07:27:37;;;;;;;;;;;;;;;3.12;61.43;101726.06;4160938;28;20036;-65
2023/03/28 07:29:39;;;;;;;;;;;;;;;3.15;61.79;101723.19;4130115;28;20013;-65
2023/03/28 07:31:42;;;;;;;;;;;;;;;3.18;62.07;101728.31;4130039;28;20033;-66
2023/03/28 07:33:45;;;;;;;;;;;;;;;3.23;61.63;101731.50;4128990;28;20024;-66
2023/03/28 07:35:51;;;;;;;;;;;;;;;3.27;61.60;101725.97;4128481;28;20436;-65
2023/03/28 07:37:56;;;;;;;;;;;;;;;3.31;61.28;101731.00;4135706;28;20009;-65
2023/03/28 07:40:09;;;;;;;;;;;;;;;3.36;61.47;101739.53;4129050;28;20017;-64
2023/03/28 07:42:13;;;;;;;;;;;;;;;3.42;61.60;101741.78;4148346;28;20019;-66
2023/03/28 07:44:15;;;;;;;;;;;;;;;3.47;61.42;101740.63;4144527;28;20040;-66
2023/03/28 07:46:19;;;;;;;;;;;;;;;3.50;60.80;101743.91;4137017;28;20904;-66
2023/03/28 07:48:21;;;;;;;;;;;;;;;3.52;60.70;101735.81;4143563;28;20012;-66
2023/03/28 07:50:23;;;;;;;;;;;;;;;3.56;61.07;101740.81;4129615;28;20464;-66
2023/03/28 07:52:28;;;;;;;;;;;;;;;3.58;60.96;101741.56;4133026;28;20008;-66
2023/03/28 07:54:31;;;;;;;;;;;;;;;3.65;60.58;101746.47;4139127;28;20442;-64
2023/03/28 07:56:34;;;;;;;;;;;;;;;3.69;60.61;101753.34;4138992;28;20427;-66
2023/03/28 07:58:54;;;;;;;;;;;;;;;3.72;59.88;101748.63;4145063;28;20015;-65
2023/03/28 08:01:03;;;;;;;;;;;;;;;3.73;58.00;101761.03;4145073;28;20389;-65
2023/03/28 08:03:27;;;;;;;;;;;;;;;3.75;58.24;101758.25;4137613;28;20267;-66
2023/03/28 08:05:32;;;;;;;;;;;;;;;3.78;58.30;101758.03;4144618;28;20025;-65
2023/03/28 08:07:36;;;;;;;;;;;;;;;3.81;58.10;101757.81;4144038;28;20016;-65
2023/03/28 08:09:38;;;;;;;;;;;;;;;3.85;57.91;101761.13;4144298;28;20020;-65
2023/03/28 08:11:54;;;;;;;;;;;;;;;3.86;57.56;101763.69;4144271;28;20036;-65
2023/03/28 08:13:56;;;;;;;;;;;;;;;3.90;56.80;101772.34;4160825;28;20456;-65
2023/03/28 08:15:59;;;;;;;;;;;;;;;3.92;56.95;101757.06;4152236;28;20029;-65
2023/03/28 08:18:02;;;;;;;;;;;;;;;3.95;56.72;101776.41;4144464;28;20032;-66
2023/03/28 08:20:08;;;;;;;;;;;;;;;3.99;56.38;101776.19;4144235;28;20029;-65
2023/03/28 08:22:29;;;;;;;;;;;;;;;4.02;55.86;101775.97;4138211;28;20328;-65
2023/03/28 08:24:51;;;;;;;;;;;;;;;4.06;55.37;101774.78;4138823;28;20029;-65
2023/03/28 08:26:56;;;;;;;;;;;;;;;4.09;55.08;101779.91;4160190;28;20092;-65
2023/03/28 08:28:59;;;;;;;;;;;;;;;4.13;55.73;101781.41;4138559;28;20867;-65
2023/03/28 08:31:08;;;;;;;;;;;;;;;4.15;54.82;101769.66;4144572;28;20068;-65
2023/03/28 08:33:10;;;;;;;;;;;;;;;4.19;53.35;101780.13;4137502;28;20037;-65
2023/03/28 08:35:12;;;;;;;;;;;;;;;4.22;54.38;101783.41;4144605;28;20028;-65
2023/03/28 08:37:14;;;;;;;;;;;;;;;4.28;55.61;101782.13;4136408;28;20025;-65
2023/03/28 08:39:19;;;;;;;;;;;;;;;4.34;56.58;101784.34;4161050;28;20012;-65
2023/03/28 08:41:27;;;;;;;;;;;;;;;4.42;57.08;101783.78;4137587;28;20475;-65
2023/03/28 08:43:53;;;;;;;;;;;;;;;4.50;56.97;101786.78;4136835;28;20012;-65
2023/03/28 08:45:55;;;;;;;;;;;;;;;4.57;55.89;101798.72;4160697;28;20024;-65
2023/03/28 08:48:02;;;;;;;;;;;;;;;4.64;57.02;101794.66;4152167;28;20025;-65
2023/03/28 08:50:07;;;;;;;;;;;;;;;4.72;56.64;101788.75;4136464;28;20020;-66
2023/03/28 08:52:09;;;;;;;;;;;;;;;4.80;56.50;101797.03;4136511;28;20016;-65
2023/03/28 08:54:13;;;;;;;;;;;;;;;4.89;57.03;101800.88;4136316;28;20009;-65
2023/03/28 08:56:15;;;;;;;;;;;;;;;4.98;55.00;101810.88;4135891;28;20016;-65
2023/03/28 08:58:22;;;;;;;;;;;;;;;5.07;55.95;101795.13;4135733;28;20480;-65
2023/03/28 09:00:27;;;;;;;;;;;;;;;5.17;55.79;101810.38;4136804;28;20021;-65
2023/03/28 09:02:29;;;;;;;;;;;;;;;5.28;56.06;101817.56;4127158;28;20024;-65
2023/03/28 09:04:31;;;;;;;;;;;;;;;5.39;55.60;101806.03;4127666;28;20020;-66
2023/03/28 09:06:44;;;;;;;;;;;;;;;5.50;55.67;101807.91;4126308;28;20432;-65
2023/03/28 09:08:57;;;;;;;;;;;;;;;5.63;55.54;101811.38;4136857;28;20395;-66
2023/03/28 09:11:02;;;;;;;;;;;;;;;5.75;55.04;101812.22;4127505;28;20017;-65
2023/03/28 09:13:07;;;;;;;;;;;;;;;5.84;54.70;101816.03;4120425;28;20024;-63
2023/03/28 09:15:21;;;;;;;;;;;;;;;5.89;54.52;101813.84;4121590;28;20455;-63
2023/03/28 09:17:24;;;;;;;;;;;;;;;5.91;53.99;101818.13;4121993;28;20017;-65
2023/03/28 09:19:32;;;;;;;;;;;;;;;5.89;53.20;101820.06;4119610;28;20021;-65
2023/03/28 09:21:57;;;;;;;;;;;;;;;5.83;52.26;101823.22;4127435;28;20029;-65
2023/03/28 09:24:06;;;;;;;;;;;;;;;5.77;53.38;101813.81;4128311;28;20024;-64
2023/03/28 09:26:30;;;;;;;;;;;;;;;5.75;53.45;101826.50;4127543;28;20399;-65
2023/03/28 09:28:40;;;;;;;;;;;;;;;5.72;52.45;101820.50;4128603;28;20396;-64
2023/03/28 09:30:43;;;;;;;;;;;;;;;5.67;52.64;101831.56;4136303;28;20380;-65
2023/03/28 09:32:46;;;;;;;;;;;;;;;5.64;52.66;101822.94;4136559;28;20042;-64
2023/03/28 09:34:48;;;;;;;;;;;;;;;5.60;52.79;101825.00;4127907;28;20033;-65
2023/03/28 09:36:53;;;;;;;;;;;;;;;5.56;52.67;101823.53;4143742;28;20048;-63
2023/03/28 09:38:58;;;;;;;;;;;;;;;5.55;51.76;101832.53;4122515;28;20452;-65
2023/03/28 09:41:01;;;;;;;;;;;;;;;5.53;51.71;101837.16;4146811;28;20055;-64
2023/03/28 09:43:25;;;;;;;;;;;;;;;5.48;51.38;101825.94;4116982;28;20455;-65
2023/03/28 09:45:51;;;;;;;;;;;;;;;5.44;49.84;101841.41;4130294;28;19996;-65
2023/03/28 09:48:12;;;;;;;;;;;;;;;5.39;51.63;101852.47;4124086;28;20025;-66
2023/03/28 09:50:20;;;;;;;;;;;;;;;5.35;52.06;101850.97;4130392;28;20025;-65
2023/03/28 09:52:26;;;;;;;;;;;;;;;5.36;52.71;101858.06;4137675;28;20021;-65
2023/03/28 09:54:33;;;;;;;;;;;;;;;5.40;52.65;101854.16;4124571;28;20008;-65
2023/03/28 09:56:36;;;;;;;;;;;;;;;5.43;51.51;101845.03;4138801;28;20377;-65
2023/03/28 09:58:50;;;;;;;;;;;;;;;5.43;51.19;101852.25;4130237;28;20430;-65
2023/03/28 10:01:30;;;;;;;;;;;;;;;5.43;51.96;101855.75;4136433;28;20031;-65
2023/03/28 10:03:58;;;;;;;;;;;;;;;5.45;51.50;101864.53;4100541;28;21373;-65
2023/03/28 10:06:23;;;;;;;;;;;;;;;5.48;50.37;101874.16;4124380;28;20017;-66
2023/03/28 10:08:28;;;;;;;;;;;;;;;5.47;49.90;101865.28;4130366;28;20021;-65
2023/03/28 10:10:56;;;;;;;;;;;;;;;5.45;51.80;101867.22;4130310;28;20024;-65
2023/03/28 10:12:59;;;;;;;;;;;;;;;5.44;51.27;101861.97;4124007;28;20444;-65
2023/03/28 10:15:02;;;;;;;;;;;;;;;5.43;50.68;101866.47;4138610;28;19969;-66
2023/03/28 10:17:31;;;;;;;;;;;;;;;5.43;50.98;101865.63;4123977;28;20016;-64
2023/03/28 10:19:34;;;;;;;;;;;;;;;5.43;50.20;101844.19;4122601;28;20026;-66
2023/03/28 10:21:45;;;;;;;;;;;;;;;5.44;51.22;101856.59;4139885;28;20021;-65
2023/03/28 10:23:51;;;;;;;;;;;;;;;5.45;50.69;101859.16;4129791;28;20517;-64
2023/03/28 10:25:54;;;;;;;;;;;;;;;5.41;51.21;101858.56;4129228;28;20024;-65
2023/03/28 10:27:59;;;;;;;;;;;;;;;5.41;51.38;101863.91;4136515;28;20005;-65
2023/03/28 10:30:08;;;;;;;;;;;;;;;5.44;52.01;101867.31;4146149;28;20045;-65
2023/03/28 10:32:11;;;;;;;;;;;;;;;5.49;51.63;101862.50;4154155;28;20348;-65
2023/03/28 10:34:25;;;;;;;;;;;;;;;5.51;51.66;101866.75;4145464;28;20016;-65
2023/03/28 10:36:47;;;;;;;;;;;;;;;5.52;51.14;101871.13;4139147;28;20358;-65
2023/03/28 10:38:56;;;;;;;;;;;;;;;5.53;50.29;101863.94;4146111;28;20024;-65
2023/03/28 10:41:19;;;;;;;;;;;;;;;5.52;51.74;101864.94;4139950;28;20379;-65
2023/03/28 10:43:40;;;;;;;;;;;;;;;5.54;50.94;101861.16;4129943;28;20069;-64
2023/03/28 10:45:51;;;;;;;;;;;;;;;5.56;51.66;101871.75;4129880;28;20028;-65
2023/03/28 10:48:05;;;;;;;;;;;;;;;5.58;49.66;101870.69;4120990;28;20077;-65
2023/03/28 10:50:17;;;;;;;;;;;;;;;5.57;49.87;101877.00;4138168;28;20374;-66
2023/03/28 10:52:21;;;;;;;;;;;;;;;5.66;51.09;101882.63;4123137;28;20041;-65
2023/03/28 10:54:26;;;;;;;;;;;;;;;5.81;50.77;101872.56;4124958;28;19953;-66
2023/03/28 10:56:29;;;;;;;;;;;;;;;5.88;50.84;101871.13;4129563;28;20020;-65
2023/03/28 10:58:33;;;;;;;;;;;;;;;5.89;51.04;101862.97;4138274;28;20021;-65
2023/03/28 11:00:38;;;;;;;;;;;;;;;5.99;50.51;101875.66;4129851;28;20025;-66
2023/03/28 11:02:44;;;;;;;;;;;;;;;6.11;50.50;101875.59;4129109;28;20012;-66
2023/03/28 11:04:55;;;;;;;;;;;;;;;6.19;50.47;101883.03;4130214;28;20472;-65
2023/03/28 11:07:01;;;;;;;;;;;;;;;6.20;50.16;101876.69;4145476;28;20012;-65